createdAt,value
2022-08-04T00:02:04.912Z,3.72
2022-08-04T00:04:43.084Z,3.65
2022-08-04T00:07:17.275Z,3.45
2022-08-04T00:09:50.681Z,4.30
2022-08-04T00:12:21.511Z,3.97
2022-08-04T00:15:00.807Z,3.60
2022-08-04T00:17:33.778Z,4.30
2022-08-04T00:20:05.144Z,4.13
2022-08-04T00:22:35.975Z,3.50
2022-08-04T00:25:06.138Z,4.95
2022-08-04T00:30:05.837Z,3.47
2022-08-04T00:32:34.926Z,2.90
2022-08-04T00:35:03.497Z,4.47
2022-08-04T00:37:34.111Z,4.10
2022-08-04T00:40:08.308Z,4.30
2022-08-04T00:42:49.496Z,3.65
2022-08-04T00:46:16.215Z,3.40
2022-08-04T00:49:02.307Z,3.80
2022-08-04T00:51:44.857Z,3.05
2022-08-04T00:54:17.891Z,4.50
2022-08-04T00:57:03.987Z,3.45
2022-08-04T00:59:51.066Z,3.97
2022-08-04T01:02:29.950Z,3.80
2022-08-04T01:05:05.471Z,3.83
2022-08-04T01:07:50.671Z,3.35
2022-08-04T01:10:29.811Z,3.08
2022-08-04T01:13:18.863Z,3.45
2022-08-04T01:16:00.404Z,3.38
2022-08-04T01:18:42.814Z,3.50
2022-08-04T01:21:34.814Z,3.60
2022-08-04T01:24:30.751Z,3.60
2022-08-04T01:27:05.063Z,4.18
2022-08-04T01:29:47.122Z,3.47
2022-08-04T01:32:25.470Z,3.63
2022-08-04T01:35:03.671Z,3.20
2022-08-04T01:37:49.293Z,3.45
2022-08-04T01:40:17.981Z,3.45
2022-08-04T01:42:46.724Z,3.90
2022-08-04T01:45:16.778Z,3.75
2022-08-04T01:47:51.846Z,3.33
2022-08-04T01:50:20.696Z,3.35
2022-08-04T01:52:51.382Z,3.90
2022-08-04T01:55:20.746Z,3.67
2022-08-04T01:57:50.352Z,3.83
2022-08-04T02:00:22.091Z,4.07
2022-08-04T02:02:51.590Z,3.90
2022-08-04T02:05:21.638Z,3.53
2022-08-04T02:08:19.543Z,3.80
2022-08-04T02:10:59.282Z,3.60
2022-08-04T02:13:39.182Z,4.38
2022-08-04T02:16:17.510Z,4.40
2022-08-04T02:18:59.109Z,4.13
2022-08-04T02:21:28.913Z,4.50
2022-08-04T02:24:17.056Z,4.32
2022-08-04T02:26:50.869Z,4.75
2022-08-04T02:29:21.964Z,4.28
2022-08-04T02:32:02.752Z,4.20
2022-08-04T02:34:33.851Z,3.72
2022-08-04T02:37:05.003Z,3.78
2022-08-04T02:39:47.756Z,3.92
2022-08-04T02:42:18.429Z,4.32
2022-08-04T02:44:50.997Z,3.95
2022-08-04T02:47:22.814Z,3.60
2022-08-04T02:49:52.937Z,4.05
2022-08-04T02:52:22.407Z,3.70
2022-08-04T02:54:54.414Z,3.67
2022-08-04T02:57:28.038Z,4.30
2022-08-04T03:00:09.502Z,5.15
2022-08-04T03:02:54.794Z,4.28
2022-08-04T03:05:28.974Z,4.40
2022-08-04T03:08:29.941Z,3.67
2022-08-04T03:11:44.458Z,3.92
2022-08-04T03:14:31.410Z,3.60
2022-08-04T03:17:24.047Z,3.45
2022-08-04T03:20:28.274Z,3.70
2022-08-04T03:23:25.645Z,3.65
2022-08-04T03:26:30.583Z,3.72
2022-08-04T03:29:37.511Z,3.53
2022-08-04T03:32:25.312Z,3.88
2022-08-04T03:35:13.651Z,4.15
2022-08-04T03:38:19.042Z,4.22
2022-08-04T03:41:12.164Z,4.18
2022-08-04T03:43:59.706Z,3.92
2022-08-04T03:46:55.294Z,3.80
2022-08-04T03:50:04.997Z,4.32
2022-08-04T03:53:09.484Z,4.55
2022-08-04T03:55:48.268Z,4.53
2022-08-04T03:59:03.811Z,4.78
2022-08-04T04:02:06.817Z,4.60
2022-08-04T04:05:01.503Z,3.95
2022-08-04T04:08:02.024Z,4.72
2022-08-04T04:11:02.074Z,4.18
2022-08-04T04:14:09.043Z,4.20
2022-08-04T04:16:54.322Z,4.03
2022-08-04T04:19:52.948Z,3.90
2022-08-04T04:22:54.010Z,3.72
2022-08-04T04:25:35.874Z,3.97
2022-08-04T04:28:45.081Z,3.70
2022-08-04T04:31:36.010Z,3.75
2022-08-04T04:34:15.856Z,4.10
2022-08-04T04:36:55.474Z,4.13
2022-08-04T04:39:36.172Z,9.32
2022-08-04T04:42:26.394Z,5.60
2022-08-04T04:48:09.716Z,4.97
2022-08-04T04:50:52.946Z,4.70
2022-08-04T04:53:29.141Z,5.03
2022-08-04T04:56:04.552Z,4.75
2022-08-04T04:58:36.542Z,4.53
2022-08-04T05:01:41.026Z,5.20
2022-08-04T05:04:26.972Z,5.50
2022-08-04T05:07:11.624Z,5.93
2022-08-04T05:09:54.959Z,6.28
2022-08-04T05:14:31.742Z,5.78
2022-08-04T05:15:49.236Z,6.05
2022-08-04T05:18:22.505Z,6.40
2022-08-04T05:20:57.234Z,5.85
2022-08-04T05:23:28.798Z,7.00
2022-08-04T05:26:00.849Z,5.82
2022-08-04T05:28:35.123Z,6.10
2022-08-04T05:31:07.475Z,5.75
2022-08-04T05:33:42.847Z,5.93
2022-08-04T05:36:27.467Z,6.15
2022-08-04T05:39:08.353Z,5.47
2022-08-04T05:41:45.620Z,6.03
2022-08-04T05:44:17.843Z,5.70
2022-08-04T05:46:53.979Z,6.18
2022-08-04T05:49:23.946Z,5.15
2022-08-04T05:51:54.985Z,5.53
2022-08-04T05:54:23.845Z,5.40
2022-08-04T05:56:52.672Z,5.15
2022-08-04T05:59:23.720Z,5.43
2022-08-04T06:01:55.827Z,5.75
2022-08-04T06:04:29.238Z,5.68
2022-08-04T06:06:59.014Z,5.10
2022-08-04T06:09:27.326Z,5.03
2022-08-04T06:12:00.186Z,4.93
2022-08-04T06:14:37.066Z,5.00
2022-08-04T06:18:35.417Z,4.65
2022-08-04T06:20:20.008Z,4.22
2022-08-04T06:22:50.599Z,5.32
2022-08-04T06:25:22.133Z,5.03
2022-08-04T06:27:51.641Z,5.35
2022-08-04T06:30:20.951Z,4.75
2022-08-04T06:33:03.814Z,4.70
2022-08-04T06:35:33.777Z,4.35
2022-08-04T06:38:04.251Z,4.70
2022-08-04T06:40:34.654Z,4.60
2022-08-04T06:43:05.096Z,4.85
2022-08-04T06:45:35.494Z,4.57
2022-08-04T06:48:04.482Z,3.92
2022-08-04T06:51:30.241Z,4.43
2022-08-04T06:53:22.953Z,4.22
2022-08-04T06:55:52.691Z,4.60
2022-08-04T06:58:22.943Z,4.43
2022-08-04T07:00:51.957Z,4.50
2022-08-04T07:03:21.838Z,5.23
2022-08-04T07:08:18.985Z,3.97
2022-08-04T07:10:48.423Z,4.10
2022-08-04T07:13:17.591Z,4.70
2022-08-04T07:15:47.733Z,4.38
2022-08-04T07:18:15.777Z,4.18
2022-08-04T07:20:44.524Z,4.05
2022-08-04T07:23:17.422Z,4.40
2022-08-04T07:26:10.978Z,4.07
2022-08-04T07:28:42.135Z,3.85
2022-08-04T07:31:32.544Z,4.10
2022-08-04T07:34:11.511Z,3.58
2022-08-04T07:36:50.962Z,3.78
2022-08-04T07:39:26.396Z,4.07
2022-08-04T07:41:57.827Z,3.80
2022-08-04T07:44:27.371Z,3.63
2022-08-04T07:46:55.520Z,3.30
2022-08-04T07:49:55.156Z,3.78
2022-08-04T07:52:12.916Z,3.58
2022-08-04T07:54:42.139Z,4.13
2022-08-04T07:57:18.874Z,3.83
2022-08-04T07:59:50.299Z,3.30
2022-08-04T08:02:21.581Z,3.00
2022-08-04T08:04:49.889Z,3.00
2022-08-04T08:07:20.534Z,3.47
2022-08-04T08:09:48.638Z,3.40
2022-08-04T08:12:37.423Z,3.00
2022-08-04T08:15:08.241Z,2.95
2022-08-04T08:17:58.300Z,3.00
2022-08-04T08:20:29.670Z,3.10
2022-08-04T08:23:00.531Z,3.55
2022-08-04T08:25:31.349Z,2.80
2022-08-04T08:27:59.510Z,3.17
2022-08-04T08:30:31.434Z,3.30
2022-08-04T08:33:05.588Z,3.58
2022-08-04T08:35:53.225Z,3.60
2022-08-04T08:38:29.980Z,3.47
2022-08-04T08:41:15.111Z,3.55
2022-08-04T08:44:06.557Z,3.53
2022-08-04T08:46:55.795Z,3.65
2022-08-04T08:50:00.822Z,3.05
2022-08-04T08:53:01.980Z,3.50
2022-08-04T08:58:27.930Z,3.50
2022-08-04T09:01:08.255Z,3.47
2022-08-04T09:04:23.751Z,3.60
2022-08-04T09:07:15.830Z,3.40
2022-08-04T09:10:09.975Z,3.17
2022-08-04T09:12:45.907Z,2.95
2022-08-04T09:15:16.749Z,3.53
2022-08-04T09:17:51.426Z,3.55
2022-08-04T09:20:30.372Z,3.15
2022-08-04T09:23:08.870Z,3.40
2022-08-04T09:25:47.737Z,2.90
2022-08-04T09:28:43.684Z,3.20
2022-08-04T09:31:14.789Z,3.65
2022-08-04T09:33:50.521Z,3.47
2022-08-04T09:36:33.501Z,3.00
2022-08-04T09:39:11.273Z,3.08
2022-08-04T09:41:52.598Z,3.20
2022-08-04T09:44:49.831Z,3.38
2022-08-04T09:47:25.993Z,3.30
2022-08-04T09:50:19.672Z,2.97
2022-08-04T09:55:35.897Z,3.13
2022-08-04T09:58:29.450Z,3.60
2022-08-04T10:01:02.634Z,2.80
2022-08-04T10:03:35.852Z,3.40
2022-08-04T10:06:14.965Z,2.85
2022-08-04T10:09:07.152Z,3.97
2022-08-04T10:11:54.561Z,3.58
2022-08-04T10:14:39.939Z,3.28
2022-08-04T10:17:20.763Z,3.30
2022-08-04T10:19:54.989Z,3.10
2022-08-04T10:22:29.926Z,3.30
2022-08-04T10:26:03.101Z,3.28
2022-08-04T10:28:10.177Z,3.60
2022-08-04T10:30:41.724Z,3.40
2022-08-04T10:33:19.511Z,3.47
2022-08-04T10:35:51.256Z,3.60
2022-08-04T10:38:26.977Z,3.65
2022-08-04T10:41:03.056Z,3.65
2022-08-04T10:43:44.075Z,3.40
2022-08-04T10:46:16.064Z,4.55
2022-08-04T10:48:50.708Z,3.47
2022-08-04T10:51:26.909Z,3.95
2022-08-04T10:54:00.994Z,3.50
2022-08-04T10:56:37.247Z,3.75
2022-08-04T10:59:10.326Z,3.83
2022-08-04T11:02:00.927Z,3.85
2022-08-04T11:04:38.858Z,3.90
2022-08-04T11:07:07.522Z,3.90
2022-08-04T11:09:36.448Z,3.67
2022-08-04T11:12:11.404Z,3.60
2022-08-04T11:14:45.537Z,3.58
2022-08-04T11:17:22.054Z,3.78
2022-08-04T11:20:24.764Z,3.72
2022-08-04T11:22:56.480Z,4.25
2022-08-04T11:25:29.296Z,3.65
2022-08-04T11:28:05.516Z,3.50
2022-08-04T11:30:41.686Z,3.53
2022-08-04T11:33:17.915Z,3.50
2022-08-04T11:36:04.326Z,3.72
2022-08-04T11:38:38.845Z,3.35
2022-08-04T11:41:12.015Z,3.45
2022-08-04T11:44:00.501Z,3.50
2022-08-04T11:46:38.199Z,2.88
2022-08-04T11:49:09.572Z,2.67
2022-08-04T11:51:38.235Z,2.70
2022-08-04T11:54:06.514Z,3.15
2022-08-04T11:56:36.833Z,2.92
2022-08-04T11:59:09.300Z,3.10
2022-08-04T12:01:56.091Z,2.80
2022-08-04T12:04:36.054Z,2.50
2022-08-04T12:07:30.156Z,3.67
2022-08-04T12:10:04.913Z,3.30
2022-08-04T12:12:43.159Z,3.20
2022-08-04T12:15:21.641Z,2.90
2022-08-04T12:17:59.272Z,2.70
2022-08-04T12:20:40.762Z,2.75
2022-08-04T12:23:18.579Z,2.60
2022-08-04T12:25:55.777Z,2.70
2022-08-04T12:28:52.569Z,2.38
2022-08-04T12:31:29.614Z,2.95
2022-08-04T12:34:05.263Z,2.70
2022-08-04T12:36:41.212Z,2.90
2022-08-04T12:39:14.097Z,3.10
2022-08-04T12:41:49.625Z,2.92
2022-08-04T12:44:36.807Z,2.55
2022-08-04T12:47:26.495Z,2.50
2022-08-04T12:50:00.682Z,3.03
2022-08-04T12:52:59.029Z,2.92
2022-08-04T12:55:22.231Z,2.40
2022-08-04T12:57:52.195Z,3.17
2022-08-04T13:00:32.006Z,2.78
2022-08-04T13:03:10.554Z,2.70
2022-08-04T13:05:41.387Z,2.53
2022-08-04T13:08:11.457Z,2.60
2022-08-04T13:10:42.563Z,2.53
2022-08-04T13:13:16.973Z,2.58
2022-08-04T13:15:56.560Z,2.33
2022-08-04T13:18:52.511Z,2.15
2022-08-04T13:21:22.891Z,2.40
2022-08-04T13:24:22.786Z,2.15
2022-08-04T13:27:05.072Z,2.50
2022-08-04T13:29:59.865Z,2.33
2022-08-04T13:32:27.033Z,2.40
2022-08-04T13:37:31.813Z,2.38
2022-08-04T13:40:01.324Z,2.30
2022-08-04T13:42:29.937Z,2.40
2022-08-04T13:45:00.937Z,2.30
2022-08-04T13:47:31.608Z,2.17
2022-08-04T13:50:21.009Z,2.53
2022-08-04T13:52:53.031Z,2.33
2022-08-04T13:55:24.502Z,2.33
2022-08-04T13:57:58.403Z,2.65
2022-08-04T14:00:30.648Z,2.35
2022-08-04T14:03:03.282Z,2.38
2022-08-04T14:05:58.860Z,2.00
2022-08-04T14:08:26.252Z,3.22
2022-08-04T14:10:58.187Z,2.28
2022-08-04T14:13:41.039Z,2.60
2022-08-04T14:16:18.743Z,2.30
2022-08-04T14:18:47.268Z,2.55
2022-08-04T14:21:18.695Z,2.28
2022-08-04T14:23:50.600Z,2.08
2022-08-04T14:26:30.024Z,2.20
2022-08-04T14:29:27.604Z,2.00
2022-08-04T14:32:06.012Z,2.38
2022-08-04T14:34:45.001Z,1.65
2022-08-04T14:37:19.798Z,2.20
2022-08-04T14:40:19.073Z,1.92
2022-08-04T14:42:42.232Z,2.22
2022-08-04T14:45:12.210Z,2.03
2022-08-04T14:47:52.283Z,1.80
2022-08-04T14:50:22.866Z,1.70
2022-08-04T14:55:23.574Z,1.85
2022-08-04T14:58:36.168Z,2.20
2022-08-04T15:03:10.861Z,2.33
2022-08-04T15:05:55.155Z,1.88
2022-08-04T15:08:32.022Z,2.00
2022-08-04T15:11:02.811Z,2.20
2022-08-04T15:13:32.059Z,1.85
2022-08-04T15:16:02.315Z,1.95
2022-08-04T15:18:38.764Z,1.90
2022-08-04T15:21:09.156Z,2.15
2022-08-04T15:23:40.241Z,2.00
2022-08-04T15:26:12.790Z,1.83
2022-08-04T15:28:45.827Z,1.83
2022-08-04T15:32:05.553Z,2.10
2022-08-04T15:34:03.379Z,2.30
2022-08-04T15:36:43.987Z,2.20
2022-08-04T15:39:36.218Z,2.33
2022-08-04T15:42:20.886Z,2.53
2022-08-04T15:45:21.100Z,2.55
2022-08-04T15:51:14.378Z,3.20
2022-08-04T15:54:23.464Z,2.80
2022-08-04T15:57:02.038Z,3.15
2022-08-04T16:00:00.282Z,4.18
2022-08-04T16:02:46.991Z,3.70
2022-08-04T16:05:36.755Z,3.92
2022-08-04T16:10:50.961Z,4.82
2022-08-04T16:13:22.319Z,4.60
2022-08-04T16:15:56.077Z,4.72
2022-08-04T16:18:43.709Z,4.07
2022-08-04T16:21:21.166Z,3.75
2022-08-04T16:24:18.505Z,3.83
2022-08-04T16:26:53.747Z,4.18
2022-08-04T16:29:35.680Z,4.13
2022-08-04T16:32:23.752Z,3.92
2022-08-04T16:34:58.814Z,4.43
2022-08-04T16:37:32.318Z,3.97
2022-08-04T16:40:37.495Z,4.40
2022-08-04T16:43:10.105Z,4.25
2022-08-04T16:45:54.256Z,3.88
2022-08-04T16:48:27.313Z,4.28
2022-08-04T16:51:04.602Z,3.70
2022-08-04T16:53:52.005Z,3.92
2022-08-04T16:56:30.330Z,4.28
2022-08-04T16:59:07.503Z,3.72
2022-08-04T17:01:38.219Z,4.65
2022-08-04T17:04:07.347Z,3.60
2022-08-04T17:06:37.937Z,3.85
2022-08-04T17:09:07.976Z,3.55
2022-08-04T17:11:36.253Z,3.70
2022-08-04T17:14:06.036Z,3.72
2022-08-04T17:16:37.593Z,3.70
2022-08-04T17:19:20.062Z,3.60
2022-08-04T17:21:58.860Z,3.42
2022-08-04T17:24:30.848Z,3.80
2022-08-04T17:26:59.785Z,3.65
2022-08-04T17:29:43.286Z,3.60
2022-08-04T17:32:21.173Z,4.03
2022-08-04T17:34:51.059Z,3.70
2022-08-04T17:37:38.326Z,3.83
2022-08-04T17:40:10.315Z,3.90
2022-08-04T17:42:40.369Z,3.35
2022-08-04T17:45:49.297Z,4.05
2022-08-04T17:48:02.849Z,3.20
2022-08-04T17:50:35.820Z,4.43
2022-08-04T17:53:11.597Z,3.63
2022-08-04T17:55:46.871Z,3.42
2022-08-04T17:58:21.096Z,3.38
2022-08-04T18:01:32.902Z,3.30
2022-08-04T18:03:53.179Z,3.22
2022-08-04T18:06:22.881Z,3.80
2022-08-04T18:08:57.448Z,3.70
2022-08-04T18:14:14.529Z,3.85
2022-08-04T18:16:45.627Z,4.20
2022-08-04T18:19:18.927Z,4.50
2022-08-04T18:21:59.468Z,3.75
2022-08-04T18:24:35.991Z,3.90
2022-08-04T18:27:18.522Z,3.97
2022-08-04T18:29:56.453Z,4.65
2022-08-04T18:32:34.963Z,3.28
2022-08-04T18:35:05.586Z,3.30
2022-08-04T18:38:06.245Z,3.42
2022-08-04T18:40:33.231Z,3.60
2022-08-04T18:43:14.347Z,4.13
2022-08-04T18:45:50.948Z,3.67
2022-08-04T18:48:19.532Z,3.78
2022-08-04T18:51:09.444Z,3.65
2022-08-04T18:53:38.383Z,4.43
2022-08-04T18:56:20.098Z,3.85
2022-08-04T18:58:57.655Z,4.40
2022-08-04T19:01:29.954Z,4.88
2022-08-04T19:03:58.675Z,4.85
2022-08-04T19:06:28.299Z,4.25
2022-08-04T19:08:57.920Z,4.30
2022-08-04T19:11:38.137Z,3.88
2022-08-04T19:14:14.350Z,3.38
2022-08-04T19:16:45.710Z,3.70
2022-08-04T19:19:14.124Z,3.00
2022-08-04T19:22:00.576Z,3.15
2022-08-04T19:24:35.363Z,3.50
2022-08-04T19:27:09.129Z,3.47
2022-08-04T19:29:40.602Z,3.13
2022-08-04T19:32:13.964Z,4.28
2022-08-04T19:34:45.725Z,3.25
2022-08-04T19:37:58.173Z,3.53
2022-08-04T19:40:08.159Z,3.58
2022-08-04T19:42:37.773Z,3.05
2022-08-04T19:45:09.027Z,3.08
2022-08-04T19:48:17.600Z,3.75
2022-08-04T19:50:32.284Z,3.28
2022-08-04T19:53:04.200Z,3.15
2022-08-04T19:55:49.737Z,3.35
2022-08-04T19:58:21.524Z,3.15
2022-08-04T20:00:54.800Z,3.10
2022-08-04T20:04:09.986Z,2.92
2022-08-04T20:06:11.794Z,3.00
2022-08-04T20:08:48.121Z,3.35
2022-08-04T20:11:18.520Z,2.85
2022-08-04T20:13:54.682Z,3.47
2022-08-04T20:16:29.581Z,3.33
2022-08-04T20:19:03.297Z,2.95
2022-08-04T20:21:54.415Z,3.10
2022-08-04T20:24:38.908Z,3.25
2022-08-04T20:27:21.732Z,3.80
2022-08-04T20:32:26.762Z,3.33
2022-08-04T20:34:56.707Z,3.38
2022-08-04T20:39:56.516Z,3.15
2022-08-04T20:42:27.672Z,3.00
2022-08-04T20:45:02.049Z,3.08
2022-08-04T20:47:35.693Z,3.60
2022-08-04T20:50:05.826Z,3.88
2022-08-04T20:52:37.695Z,3.10
2022-08-04T20:55:09.054Z,2.67
2022-08-04T20:57:47.956Z,3.45
2022-08-04T21:02:44.955Z,3.67
2022-08-04T21:05:13.045Z,3.13
2022-08-04T21:07:43.748Z,3.20
2022-08-04T21:10:18.333Z,3.60
2022-08-04T21:12:50.662Z,3.58
2022-08-04T21:15:24.621Z,3.58
2022-08-04T21:17:59.454Z,3.00
2022-08-04T21:20:33.549Z,3.25
2022-08-04T21:23:04.981Z,3.70
2022-08-04T21:25:42.753Z,3.83
2022-08-04T21:28:12.346Z,4.05
2022-08-04T21:30:54.277Z,4.15
2022-08-04T21:33:50.032Z,3.95
2022-08-04T21:36:13.545Z,4.80
2022-08-04T21:38:51.123Z,4.28
2022-08-04T21:41:26.877Z,4.78
2022-08-04T21:43:56.555Z,4.20
2022-08-04T21:46:27.304Z,4.30
2022-08-04T21:48:58.500Z,4.43
2022-08-04T21:51:59.669Z,4.03
2022-08-04T21:56:51.004Z,4.32
2022-08-04T21:59:24.345Z,4.15
2022-08-04T22:02:01.020Z,4.47
2022-08-04T22:04:29.814Z,3.80
2022-08-04T22:06:58.376Z,4.60
2022-08-04T22:09:38.717Z,4.28
2022-08-04T22:12:12.527Z,4.00
2022-08-04T22:14:40.897Z,4.03
2022-08-04T22:17:13.551Z,4.43
2022-08-04T22:19:55.194Z,4.30
2022-08-04T22:22:27.089Z,4.03
2022-08-04T22:25:01.285Z,4.10
2022-08-04T22:27:55.089Z,4.47
2022-08-04T22:30:32.916Z,4.10
2022-08-04T22:33:05.623Z,3.35
2022-08-04T22:35:44.050Z,3.35
2022-08-04T22:38:26.186Z,3.25
2022-08-04T22:41:02.589Z,2.83
2022-08-04T22:43:34.730Z,2.97
2022-08-04T22:46:07.754Z,3.83
2022-08-04T22:48:37.434Z,3.42
2022-08-04T22:51:08.089Z,3.22
2022-08-04T22:53:36.863Z,2.65
2022-08-04T22:56:09.873Z,2.33
2022-08-04T22:58:45.256Z,2.70
2022-08-04T23:01:14.921Z,2.10
2022-08-04T23:03:55.403Z,1.75
2022-08-04T23:06:28.388Z,2.70
2022-08-04T23:08:57.572Z,2.40
2022-08-04T23:11:35.127Z,2.53
2022-08-04T23:14:05.979Z,2.50
2022-08-04T23:16:40.323Z,2.15
2022-08-04T23:19:15.148Z,2.47
2022-08-04T23:21:47.448Z,2.00
2022-08-04T23:24:30.015Z,2.60
2022-08-04T23:26:58.202Z,2.20
2022-08-04T23:29:28.009Z,2.63
2022-08-04T23:32:16.107Z,2.13
2022-08-04T23:34:48.657Z,2.20
2022-08-04T23:37:16.793Z,2.45
2022-08-04T23:40:14.315Z,2.25
2022-08-04T23:42:34.681Z,1.95
2022-08-04T23:45:06.223Z,2.40
2022-08-04T23:48:15.843Z,1.70
2022-08-04T23:50:24.342Z,1.90
2022-08-04T23:52:53.621Z,1.67
2022-08-04T23:55:21.966Z,2.20
2022-08-04T23:58:05.308Z,2.22
